sensor_id;sensor_type;location;lat;lon;timestamp;pressure;altitude;pressure_sealevel;temperature;humidity
64739;BME280;51175;51.186;0.276;2023-06-22T00:00:05;101482.75;;;23.85;52.87
64739;BME280;51175;51.186;0.276;2023-06-22T00:00:41;101489.75;;;23.86;52.72
64739;BME280;51175;51.186;0.276;2023-06-22T00:01:12;101488.94;;;23.86;52.59
64739;BME280;51175;51.186;0.276;2023-06-22T00:01:43;101484.69;;;23.85;52.58
64739;BME280;51175;51.186;0.276;2023-06-22T00:02:13;101478.81;;;23.83;52.77
64739;BME280;51175;51.186;0.276;2023-06-22T00:02:43;101481.50;;;23.83;52.83
64739;BME280;51175;51.186;0.276;2023-06-22T00:03:14;101485.00;;;23.83;52.89
64739;BME280;51175;51.186;0.276;2023-06-22T00:03:44;101486.91;;;23.83;52.88
64739;BME280;51175;51.186;0.276;2023-06-22T00:04:15;101486.09;;;23.82;52.84
64739;BME280;51175;51.186;0.276;2023-06-22T00:04:45;101481.03;;;23.80;52.77
64739;BME280;51175;51.186;0.276;2023-06-22T00:05:16;101479.16;;;23.81;52.82
64739;BME280;51175;51.186;0.276;2023-06-22T00:05:47;101481.84;;;23.81;52.83
64739;BME280;51175;51.186;0.276;2023-06-22T00:06:18;101485.66;;;23.80;52.82
64739;BME280;51175;51.186;0.276;2023-06-22T00:06:48;101482.97;;;23.80;53.03
64739;BME280;51175;51.186;0.276;2023-06-22T00:07:19;101486.44;;;23.80;52.93
64739;BME280;51175;51.186;0.276;2023-06-22T00:07:49;101492.16;;;23.79;52.83
64739;BME280;51175;51.186;0.276;2023-06-22T00:08:20;101479.47;;;23.79;52.83
64739;BME280;51175;51.186;0.276;2023-06-22T00:08:50;101489.47;;;23.79;52.88
64739;BME280;51175;51.186;0.276;2023-06-22T00:09:20;101492.16;;;23.79;52.78
64739;BME280;51175;51.186;0.276;2023-06-22T00:09:51;101482.16;;;23.79;52.99
64739;BME280;51175;51.186;0.276;2023-06-22T00:10:21;101483.28;;;23.78;52.71
64739;BME280;51175;51.186;0.276;2023-06-22T00:10:52;101482.16;;;23.79;52.95
64739;BME280;51175;51.186;0.276;2023-06-22T00:11:22;101484.06;;;23.79;52.69
64739;BME280;51175;51.186;0.276;2023-06-22T00:11:53;101482.16;;;23.79;52.71
64739;BME280;51175;51.186;0.276;2023-06-22T00:12:23;101486.75;;;23.79;52.84
64739;BME280;51175;51.186;0.276;2023-06-22T00:12:54;101480.59;;;23.78;52.92
64739;BME280;51175;51.186;0.276;2023-06-22T00:13:24;101483.28;;;23.78;52.89
64739;BME280;51175;51.186;0.276;2023-06-22T00:13:55;101477.09;;;23.78;52.92
64739;BME280;51175;51.186;0.276;2023-06-22T00:14:25;101477.09;;;23.78;52.95
64739;BME280;51175;51.186;0.276;2023-06-22T00:14:56;101479.78;;;23.78;52.93
64739;BME280;51175;51.186;0.276;2023-06-22T00:15:26;101476.31;;;23.77;52.64
64739;BME280;51175;51.186;0.276;2023-06-22T00:15:57;101481.69;;;23.77;53.00
64739;BME280;51175;51.186;0.276;2023-06-22T00:16:27;101475.53;;;23.77;52.95
64739;BME280;51175;51.186;0.276;2023-06-22T00:16:57;101474.72;;;23.76;52.71
64739;BME280;51175;51.186;0.276;2023-06-22T00:17:29;101473.16;;;23.75;52.80
64739;BME280;51175;51.186;0.276;2023-06-22T00:17:59;101477.44;;;23.76;52.82
64739;BME280;51175;51.186;0.276;2023-06-22T00:18:30;101476.63;;;23.76;52.94
64739;BME280;51175;51.186;0.276;2023-06-22T00:19:01;101477.75;;;23.75;52.85
64739;BME280;51175;51.186;0.276;2023-06-22T00:19:33;101476.94;;;23.74;52.82
64739;BME280;51175;51.186;0.276;2023-06-22T00:20:06;101477.75;;;23.75;52.99
64739;BME280;51175;51.186;0.276;2023-06-22T00:20:37;101479.66;;;23.74;52.74
64739;BME280;51175;51.186;0.276;2023-06-22T00:21:07;101473.81;;;23.72;52.84
64739;BME280;51175;51.186;0.276;2023-06-22T00:21:38;101475.38;;;23.73;53.02
64739;BME280;51175;51.186;0.276;2023-06-22T00:22:08;101473.81;;;23.72;52.94
64739;BME280;51175;51.186;0.276;2023-06-22T00:22:39;101472.69;;;23.73;52.92
64739;BME280;51175;51.186;0.276;2023-06-22T00:23:09;101479.97;;;23.73;52.97
64739;BME280;51175;51.186;0.276;2023-06-22T00:23:40;101476.50;;;23.72;52.84
64739;BME280;51175;51.186;0.276;2023-06-22T00:24:11;101473.00;;;23.72;52.98
64739;BME280;51175;51.186;0.276;2023-06-22T00:24:41;101475.72;;;23.72;52.91
64739;BME280;51175;51.186;0.276;2023-06-22T00:25:12;101474.91;;;23.71;52.90
64739;BME280;51175;51.186;0.276;2023-06-22T00:25:42;101467.94;;;23.70;52.81
64739;BME280;51175;51.186;0.276;2023-06-22T00:26:13;101473.34;;;23.70;53.08
64739;BME280;51175;51.186;0.276;2023-06-22T00:26:44;101478.72;;;23.70;52.79
64739;BME280;51175;51.186;0.276;2023-06-22T00:27:14;101474.47;;;23.69;52.96
64739;BME280;51175;51.186;0.276;2023-06-22T00:27:44;101475.22;;;23.69;52.88
64739;BME280;51175;51.186;0.276;2023-06-22T00:28:15;101473.66;;;23.68;52.97
64739;BME280;51175;51.186;0.276;2023-06-22T00:28:45;101470.16;;;23.68;52.92
64739;BME280;51175;51.186;0.276;2023-06-22T00:29:16;101475.56;;;23.68;53.11
64739;BME280;51175;51.186;0.276;2023-06-22T00:29:47;101472.88;;;23.68;52.93
64739;BME280;51175;51.186;0.276;2023-06-22T00:30:18;101476.69;;;23.67;52.96
64739;BME280;51175;51.186;0.276;2023-06-22T00:30:49;101470.50;;;23.66;52.98
64739;BME280;51175;51.186;0.276;2023-06-22T00:31:19;101475.88;;;23.66;52.97
64739;BME280;51175;51.186;0.276;2023-06-22T00:31:50;101478.91;;;23.65;52.97
64739;BME280;51175;51.186;0.276;2023-06-22T00:32:20;101474.31;;;23.65;52.95
64739;BME280;51175;51.186;0.276;2023-06-22T00:32:50;101472.72;;;23.64;53.16
64739;BME280;51175;51.186;0.276;2023-06-22T00:33:21;101472.72;;;23.64;52.91
64739;BME280;51175;51.186;0.276;2023-06-22T00:33:51;101475.41;;;23.64;53.16
64739;BME280;51175;51.186;0.276;2023-06-22T00:34:22;101474.63;;;23.64;53.05
64739;BME280;51175;51.186;0.276;2023-06-22T00:34:52;101480.81;;;23.64;53.02
64739;BME280;51175;51.186;0.276;2023-06-22T00:35:23;101475.75;;;23.63;53.00
64739;BME280;51175;51.186;0.276;2023-06-22T00:35:53;101478.44;;;23.63;53.05
64739;BME280;51175;51.186;0.276;2023-06-22T00:36:24;101473.03;;;23.63;53.16
64739;BME280;51175;51.186;0.276;2023-06-22T00:36:55;101475.75;;;23.63;53.14
64739;BME280;51175;51.186;0.276;2023-06-22T00:37:25;101473.84;;;23.63;53.05
64739;BME280;51175;51.186;0.276;2023-06-22T00:37:58;101476.88;;;23.62;52.87
64739;BME280;51175;51.186;0.276;2023-06-22T00:38:32;101474.16;;;23.62;53.04
64739;BME280;51175;51.186;0.276;2023-06-22T00:39:02;101474.16;;;23.62;53.08
64739;BME280;51175;51.186;0.276;2023-06-22T00:39:33;101473.38;;;23.61;53.02
64739;BME280;51175;51.186;0.276;2023-06-22T00:40:04;101475.28;;;23.61;53.11
64739;BME280;51175;51.186;0.276;2023-06-22T00:40:35;101469.91;;;23.61;53.05
64739;BME280;51175;51.186;0.276;2023-06-22T00:41:06;101471.00;;;23.60;53.05
64739;BME280;51175;51.186;0.276;2023-06-22T00:41:36;101475.28;;;23.61;53.11
64739;BME280;51175;51.186;0.276;2023-06-22T00:42:06;101477.19;;;23.60;53.03
64739;BME280;51175;51.186;0.276;2023-06-22T00:42:41;101479.41;;;23.58;53.03
64739;BME280;51175;51.186;0.276;2023-06-22T00:43:11;101472.91;;;23.59;52.96
64739;BME280;51175;51.186;0.276;2023-06-22T00:43:41;101473.25;;;23.58;53.03
64739;BME280;51175;51.186;0.276;2023-06-22T00:44:12;101476.72;;;23.58;53.12
64739;BME280;51175;51.186;0.276;2023-06-22T00:44:43;101470.56;;;23.58;53.07
64739;BME280;51175;51.186;0.276;2023-06-22T00:45:15;101477.84;;;23.57;53.08
64739;BME280;51175;51.186;0.276;2023-06-22T00:45:45;101475.16;;;23.57;53.07
64739;BME280;51175;51.186;0.276;2023-06-22T00:46:16;101475.94;;;23.58;53.20
64739;BME280;51175;51.186;0.276;2023-06-22T00:46:46;101470.88;;;23.56;53.06
64739;BME280;51175;51.186;0.276;2023-06-22T00:47:17;101470.06;;;23.55;53.06
64739;BME280;51175;51.186;0.276;2023-06-22T00:47:52;101470.06;;;23.55;53.06
64739;BME280;51175;51.186;0.276;2023-06-22T00:48:23;101471.97;;;23.55;53.05
64739;BME280;51175;51.186;0.276;2023-06-22T00:48:54;101473.09;;;23.54;53.21
64739;BME280;51175;51.186;0.276;2023-06-22T00:49:27;101467.72;;;23.54;53.08
64739;BME280;51175;51.186;0.276;2023-06-22T00:49:58;101469.59;;;23.53;52.89
64739;BME280;51175;51.186;0.276;2023-06-22T00:50:30;101485.00;;;23.53;53.07
64739;BME280;51175;51.186;0.276;2023-06-22T00:51:05;101471.53;;;23.53;53.05
64739;BME280;51175;51.186;0.276;2023-06-22T00:51:36;101468.03;;;23.52;52.90
64739;BME280;51175;51.186;0.276;2023-06-22T00:52:09;101469.94;;;23.52;53.07
64739;BME280;51175;51.186;0.276;2023-06-22T00:52:44;101479.94;;;23.51;53.08
64739;BME280;51175;51.186;0.276;2023-06-22T00:53:16;101470.25;;;23.50;53.03
64739;BME280;51175;51.186;0.276;2023-06-22T00:53:48;101468.34;;;23.51;53.04
64739;BME280;51175;51.186;0.276;2023-06-22T00:54:19;101475.66;;;23.50;52.99
64739;BME280;51175;51.186;0.276;2023-06-22T00:54:56;101468.69;;;23.49;53.08
64739;BME280;51175;51.186;0.276;2023-06-22T00:55:27;101465.97;;;23.49;53.23
64739;BME280;51175;51.186;0.276;2023-06-22T00:55:58;101465.19;;;23.49;53.14
64739;BME280;51175;51.186;0.276;2023-06-22T00:56:30;101469.81;;;23.48;53.14
64739;BME280;51175;51.186;0.276;2023-06-22T00:57:00;101469.81;;;23.48;53.07
64739;BME280;51175;51.186;0.276;2023-06-22T00:57:31;101465.50;;;23.47;53.13
64739;BME280;51175;51.186;0.276;2023-06-22T00:58:02;101470.13;;;23.47;53.06
64739;BME280;51175;51.186;0.276;2023-06-22T00:58:32;101464.75;;;23.47;53.11
64739;BME280;51175;51.186;0.276;2023-06-22T00:59:03;101467.44;;;23.47;53.04
64739;BME280;51175;51.186;0.276;2023-06-22T00:59:34;101470.13;;;23.47;52.96
64739;BME280;51175;51.186;0.276;2023-06-22T01:00:05;101468.53;;;23.46;52.96
64739;BME280;51175;51.186;0.276;2023-06-22T01:00:38;101473.91;;;23.46;53.08
64739;BME280;51175;51.186;0.276;2023-06-22T01:01:09;101467.75;;;23.45;53.17
64739;BME280;51175;51.186;0.276;2023-06-22T01:01:39;101472.34;;;23.44;53.18
64739;BME280;51175;51.186;0.276;2023-06-22T01:02:11;101468.09;;;23.43;53.07
64739;BME280;51175;51.186;0.276;2023-06-22T01:02:43;101473.47;;;23.43;53.11
64739;BME280;51175;51.186;0.276;2023-06-22T01:03:15;101474.25;;;23.44;53.20
64739;BME280;51175;51.186;0.276;2023-06-22T01:03:47;101471.56;;;23.44;53.15
64739;BME280;51175;51.186;0.276;2023-06-22T01:04:18;101472.66;;;23.43;53.09
64739;BME280;51175;51.186;0.276;2023-06-22T01:04:48;101471.88;;;23.42;53.11
64739;BME280;51175;51.186;0.276;2023-06-22T01:05:20;101476.50;;;23.42;53.01
64739;BME280;51175;51.186;0.276;2023-06-22T01:05:51;101471.09;;;23.42;53.10
64739;BME280;51175;51.186;0.276;2023-06-22T01:06:31;101468.72;;;23.40;53.23
64739;BME280;51175;51.186;0.276;2023-06-22T01:08:13;101476.03;;;23.40;53.21
64739;BME280;51175;51.186;0.276;2023-06-22T01:09:31;101470.13;;;23.38;53.17
64739;BME280;51175;51.186;0.276;2023-06-22T01:09:32;101472.69;;;23.34;53.17
64739;BME280;51175;51.186;0.276;2023-06-22T01:11:26;101477.28;;;23.34;53.29
64739;BME280;51175;51.186;0.276;2023-06-22T01:12:02;101474.59;;;23.34;53.20
64739;BME280;51175;51.186;0.276;2023-06-22T01:12:45;101476.47;;;23.33;53.10
64739;BME280;51175;51.186;0.276;2023-06-22T01:13:35;101478.38;;;23.32;53.02
64739;BME280;51175;51.186;0.276;2023-06-22T01:14:14;101476.81;;;23.31;53.30
64739;BME280;51175;51.186;0.276;2023-06-22T01:15:05;101476.00;;;23.31;53.32
64739;BME280;51175;51.186;0.276;2023-06-22T01:16:23;101476.31;;;23.29;53.28
64739;BME280;51175;51.186;0.276;2023-06-22T01:16:56;101478.25;;;23.29;53.33
64739;BME280;51175;51.186;0.276;2023-06-22T01:17:28;101479.03;;;23.29;53.40
64739;BME280;51175;51.186;0.276;2023-06-22T01:18:00;101480.94;;;23.29;53.31
64739;BME280;51175;51.186;0.276;2023-06-22T01:18:35;101478.25;;;23.29;53.22
64739;BME280;51175;51.186;0.276;2023-06-22T01:19:49;101480.16;;;23.28;53.37
64739;BME280;51175;51.186;0.276;2023-06-22T01:20:27;101475.56;;;23.29;53.20
64739;BME280;51175;51.186;0.276;2023-06-22T01:20:59;101479.34;;;23.28;53.12
64739;BME280;51175;51.186;0.276;2023-06-22T01:21:31;101480.47;;;23.27;53.46
64739;BME280;51175;51.186;0.276;2023-06-22T01:22:03;101483.97;;;23.27;53.40
64739;BME280;51175;51.186;0.276;2023-06-22T01:22:57;101486.66;;;23.27;53.39
64739;BME280;51175;51.186;0.276;2023-06-22T01:24:22;101483.81;;;23.24;53.41
64739;BME280;51175;51.186;0.276;2023-06-22T01:25:12;101483.00;;;23.23;53.24
64739;BME280;51175;51.186;0.276;2023-06-22T01:26:41;101481.44;;;23.22;53.43
64739;BME280;51175;51.186;0.276;2023-06-22T01:28:41;101485.56;;;23.19;53.41
64739;BME280;51175;51.186;0.276;2023-06-22T01:29:14;101483.97;;;23.18;53.51
64739;BME280;51175;51.186;0.276;2023-06-22T01:29:45;101479.38;;;23.19;53.39
64739;BME280;51175;51.186;0.276;2023-06-22T01:30:16;101488.59;;;23.18;53.44
64739;BME280;51175;51.186;0.276;2023-06-22T01:30:49;101485.09;;;23.17;53.51
64739;BME280;51175;51.186;0.276;2023-06-22T01:31:34;101491.28;;;23.18;53.56
64739;BME280;51175;51.186;0.276;2023-06-22T01:32:06;101478.91;;;23.17;53.42
64739;BME280;51175;51.186;0.276;2023-06-22T01:32:38;101493.19;;;23.17;53.49
64739;BME280;51175;51.186;0.276;2023-06-22T01:33:12;101487.00;;;23.17;53.56
64739;BME280;51175;51.186;0.276;2023-06-22T01:33:45;101489.69;;;23.17;53.39
64739;BME280;51175;51.186;0.276;2023-06-22T01:34:17;101495.88;;;23.17;53.42
64739;BME280;51175;51.186;0.276;2023-06-22T01:34:48;101489.69;;;23.17;53.47
64739;BME280;51175;51.186;0.276;2023-06-22T01:35:20;101495.06;;;23.17;53.39
64739;BME280;51175;51.186;0.276;2023-06-22T01:35:51;101490.50;;;23.17;53.43
64739;BME280;51175;51.186;0.276;2023-06-22T01:36:23;101484.31;;;23.17;53.57
64739;BME280;51175;51.186;0.276;2023-06-22T01:36:54;101487.00;;;23.17;53.56
64739;BME280;51175;51.186;0.276;2023-06-22T01:37:27;101487.00;;;23.17;53.53
64739;BME280;51175;51.186;0.276;2023-06-22T01:37:58;101489.69;;;23.17;53.58
64739;BME280;51175;51.186;0.276;2023-06-22T01:38:29;101488.13;;;23.16;53.44
64739;BME280;51175;51.186;0.276;2023-06-22T01:39:01;101486.22;;;23.16;53.54
64739;BME280;51175;51.186;0.276;2023-06-22T01:39:34;101486.53;;;23.15;53.58
64739;BME280;51175;51.186;0.276;2023-06-22T01:40:07;101486.22;;;23.16;53.52
64739;BME280;51175;51.186;0.276;2023-06-22T01:40:38;101485.41;;;23.16;53.46
64739;BME280;51175;51.186;0.276;2023-06-22T01:41:09;101485.41;;;23.16;53.41
64739;BME280;51175;51.186;0.276;2023-06-22T01:41:43;101481.16;;;23.15;53.50
64739;BME280;51175;51.186;0.276;2023-06-22T01:42:14;101477.34;;;23.16;53.54
64739;BME280;51175;51.186;0.276;2023-06-22T01:42:44;101473.84;;;23.15;53.37
64739;BME280;51175;51.186;0.276;2023-06-22T01:43:15;101477.34;;;23.16;53.36
64739;BME280;51175;51.186;0.276;2023-06-22T01:43:45;101478.13;;;23.16;53.38
64739;BME280;51175;51.186;0.276;2023-06-22T01:44:17;101473.84;;;23.15;53.34
64739;BME280;51175;51.186;0.276;2023-06-22T01:44:48;101471.94;;;23.16;53.41
64739;BME280;51175;51.186;0.276;2023-06-22T01:45:18;101474.66;;;23.16;53.37
64739;BME280;51175;51.186;0.276;2023-06-22T01:45:50;101471.16;;;23.15;53.49
64739;BME280;51175;51.186;0.276;2023-06-22T01:46:21;101467.69;;;23.15;53.58
64739;BME280;51175;51.186;0.276;2023-06-22T01:46:53;101474.66;;;23.16;53.24
64739;BME280;51175;51.186;0.276;2023-06-22T01:47:24;101471.94;;;23.16;53.45
64739;BME280;51175;51.186;0.276;2023-06-22T01:47:55;101476.53;;;23.15;53.57
64739;BME280;51175;51.186;0.276;2023-06-22T01:48:26;101475.78;;;23.15;53.62
64739;BME280;51175;51.186;0.276;2023-06-22T01:48:57;101474.97;;;23.14;53.37
64739;BME280;51175;51.186;0.276;2023-06-22T01:49:28;101479.56;;;23.14;53.42
64739;BME280;51175;51.186;0.276;2023-06-22T01:49:58;101474.16;;;23.14;53.33
64739;BME280;51175;51.186;0.276;2023-06-22T01:50:29;101482.25;;;23.14;53.28
64739;BME280;51175;51.186;0.276;2023-06-22T01:50:59;101474.16;;;23.14;53.07
64739;BME280;51175;51.186;0.276;2023-06-22T01:51:30;101479.56;;;23.14;53.37
64739;BME280;51175;51.186;0.276;2023-06-22T01:52:01;101480.69;;;23.13;53.34
64739;BME280;51175;51.186;0.276;2023-06-22T01:52:31;101486.88;;;23.13;53.61
64739;BME280;51175;51.186;0.276;2023-06-22T01:53:04;101481.47;;;23.13;53.53
64739;BME280;51175;51.186;0.276;2023-06-22T01:53:36;101478.78;;;23.13;53.59
64739;BME280;51175;51.186;0.276;2023-06-22T01:54:07;101478.78;;;23.13;53.34
64739;BME280;51175;51.186;0.276;2023-06-22T01:54:39;101479.88;;;23.12;53.42
64739;BME280;51175;51.186;0.276;2023-06-22T01:55:10;101479.88;;;23.12;53.37
64739;BME280;51175;51.186;0.276;2023-06-22T01:55:40;101479.09;;;23.12;53.30
64739;BME280;51175;51.186;0.276;2023-06-22T01:56:11;101476.41;;;23.12;53.35
64739;BME280;51175;51.186;0.276;2023-06-22T01:56:42;101479.09;;;23.12;53.27
64739;BME280;51175;51.186;0.276;2023-06-22T01:57:12;101477.97;;;23.13;53.55
64739;BME280;51175;51.186;0.276;2023-06-22T01:57:43;101468.34;;;23.12;53.44
64739;BME280;51175;51.186;0.276;2023-06-22T01:58:13;101477.19;;;23.12;53.45
64739;BME280;51175;51.186;0.276;2023-06-22T01:58:52;101481.00;;;23.11;53.45
64739;BME280;51175;51.186;0.276;2023-06-22T01:59:29;101481.00;;;23.11;53.56
64739;BME280;51175;51.186;0.276;2023-06-22T02:00:04;101478.31;;;23.11;53.37
64739;BME280;51175;51.186;0.276;2023-06-22T02:00:38;101482.13;;;23.10;53.30
64739;BME280;51175;51.186;0.276;2023-06-22T02:01:13;101483.22;;;23.09;53.35
64739;BME280;51175;51.186;0.276;2023-06-22T02:01:54;101478.94;;;23.08;53.41
64739;BME280;51175;51.186;0.276;2023-06-22T02:02:34;101480.84;;;23.07;53.66
64739;BME280;51175;51.186;0.276;2023-06-22T02:03:19;101479.28;;;23.06;53.48
64739;BME280;51175;51.186;0.276;2023-06-22T02:04:06;101478.78;;;23.04;53.35
64739;BME280;51175;51.186;0.276;2023-06-22T02:04:57;101479.91;;;23.03;53.39
64739;BME280;51175;51.186;0.276;2023-06-22T02:05:34;101480.22;;;23.02;53.47
64739;BME280;51175;51.186;0.276;2023-06-22T02:06:10;101481.34;;;23.01;53.47
64739;BME280;51175;51.186;0.276;2023-06-22T02:06:45;101485.13;;;23.00;53.52
64739;BME280;51175;51.186;0.276;2023-06-22T02:07:18;101485.94;;;23.00;53.56
64739;BME280;51175;51.186;0.276;2023-06-22T02:07:58;101480.56;;;23.00;53.54
64739;BME280;51175;51.186;0.276;2023-06-22T02:08:35;101483.56;;;22.99;53.59
64739;BME280;51175;51.186;0.276;2023-06-22T02:09:12;101484.34;;;22.99;53.66
64739;BME280;51175;51.186;0.276;2023-06-22T02:09:45;101481.19;;;22.97;53.52
64739;BME280;51175;51.186;0.276;2023-06-22T02:10:19;101480.41;;;22.97;53.72
64739;BME280;51175;51.186;0.276;2023-06-22T02:10:51;101483.88;;;22.97;53.77
64739;BME280;51175;51.186;0.276;2023-06-22T02:11:25;101486.59;;;22.97;53.63
64739;BME280;51175;51.186;0.276;2023-06-22T02:11:58;101483.09;;;22.97;53.69
64739;BME280;51175;51.186;0.276;2023-06-22T02:12:30;101483.88;;;22.97;53.81
64739;BME280;51175;51.186;0.276;2023-06-22T02:13:04;101483.09;;;22.97;53.46
64739;BME280;51175;51.186;0.276;2023-06-22T02:13:37;101479.59;;;22.96;53.62
64739;BME280;51175;51.186;0.276;2023-06-22T02:14:13;101484.22;;;22.96;53.69
64739;BME280;51175;51.186;0.276;2023-06-22T02:14:45;101477.22;;;22.94;53.84
64739;BME280;51175;51.186;0.276;2023-06-22T02:15:17;101480.72;;;22.95;53.71
64739;BME280;51175;51.186;0.276;2023-06-22T02:15:48;101473.44;;;22.96;53.79
64739;BME280;51175;51.186;0.276;2023-06-22T02:16:19;101472.63;;;22.95;53.53
64739;BME280;51175;51.186;0.276;2023-06-22T02:16:51;101473.75;;;22.94;53.61
64739;BME280;51175;51.186;0.276;2023-06-22T02:17:21;101474.53;;;22.94;53.75
64739;BME280;51175;51.186;0.276;2023-06-22T02:17:53;101474.53;;;22.94;53.60
64739;BME280;51175;51.186;0.276;2023-06-22T02:18:24;101473.75;;;22.94;53.78
64739;BME280;51175;51.186;0.276;2023-06-22T02:18:55;101476.44;;;22.94;53.51
64739;BME280;51175;51.186;0.276;2023-06-22T02:19:27;101470.25;;;22.93;53.77
64739;BME280;51175;51.186;0.276;2023-06-22T02:19:57;101479.16;;;22.94;53.55
64739;BME280;51175;51.186;0.276;2023-06-22T02:20:28;101472.97;;;22.93;53.54
64739;BME280;51175;51.186;0.276;2023-06-22T02:20:58;101478.34;;;22.93;53.70
64739;BME280;51175;51.186;0.276;2023-06-22T02:21:31;101478.34;;;22.93;53.71
64739;BME280;51175;51.186;0.276;2023-06-22T02:22:01;101473.28;;;22.92;53.63
64739;BME280;51175;51.186;0.276;2023-06-22T02:22:32;101467.88;;;22.92;53.66
64739;BME280;51175;51.186;0.276;2023-06-22T02:23:02;101470.59;;;22.92;53.67
64739;BME280;51175;51.186;0.276;2023-06-22T02:23:33;101473.28;;;22.92;53.59
64739;BME280;51175;51.186;0.276;2023-06-22T02:24:05;101482.16;;;22.92;53.57
64739;BME280;51175;51.186;0.276;2023-06-22T02:24:36;101474.41;;;22.91;53.48
64739;BME280;51175;51.186;0.276;2023-06-22T02:25:06;101476.28;;;22.90;53.83
64739;BME280;51175;51.186;0.276;2023-06-22T02:25:37;101474.41;;;22.91;53.42
64739;BME280;51175;51.186;0.276;2023-06-22T02:26:08;101472.78;;;22.90;53.56
64739;BME280;51175;51.186;0.276;2023-06-22T02:26:38;101475.50;;;22.90;53.67
64739;BME280;51175;51.186;0.276;2023-06-22T02:27:12;101475.50;;;22.90;53.67
64739;BME280;51175;51.186;0.276;2023-06-22T02:27:43;101472.78;;;22.90;53.58
64739;BME280;51175;51.186;0.276;2023-06-22T02:28:13;101472.78;;;22.90;53.56
64739;BME280;51175;51.186;0.276;2023-06-22T02:28:44;101473.91;;;22.89;53.64
64739;BME280;51175;51.186;0.276;2023-06-22T02:29:15;101477.41;;;22.89;53.61
64739;BME280;51175;51.186;0.276;2023-06-22T02:29:45;101465.84;;;22.89;53.65
64739;BME280;51175;51.186;0.276;2023-06-22T02:30:16;101473.13;;;22.88;53.62
64739;BME280;51175;51.186;0.276;2023-06-22T02:30:46;101473.13;;;22.88;53.44
64739;BME280;51175;51.186;0.276;2023-06-22T02:31:17;101470.44;;;22.88;53.62
64739;BME280;51175;51.186;0.276;2023-06-22T02:31:48;101466.16;;;22.87;53.62
64739;BME280;51175;51.186;0.276;2023-06-22T02:32:18;101463.47;;;22.87;53.43
64739;BME280;51175;51.186;0.276;2023-06-22T02:32:49;101468.06;;;22.87;53.73
64739;BME280;51175;51.186;0.276;2023-06-22T02:33:19;101464.25;;;22.88;53.37
64739;BME280;51175;51.186;0.276;2023-06-22T02:33:49;101467.28;;;22.86;53.57
64739;BME280;51175;51.186;0.276;2023-06-22T02:34:21;101466.47;;;22.86;53.58
64739;BME280;51175;51.186;0.276;2023-06-22T02:34:52;101469.97;;;22.86;53.62
64739;BME280;51175;51.186;0.276;2023-06-22T02:35:23;101466.47;;;22.86;53.52
64739;BME280;51175;51.186;0.276;2023-06-22T02:35:53;101468.06;;;22.87;53.51
64739;BME280;51175;51.186;0.276;2023-06-22T02:36:24;101461.91;;;22.86;53.59
64739;BME280;51175;51.186;0.276;2023-06-22T02:36:57;101463.00;;;22.85;53.43
64739;BME280;51175;51.186;0.276;2023-06-22T02:37:28;101464.91;;;22.85;53.53
64739;BME280;51175;51.186;0.276;2023-06-22T02:38:00;101459.53;;;22.85;53.50
64739;BME280;51175;51.186;0.276;2023-06-22T02:38:31;101461.41;;;22.84;53.57
64739;BME280;51175;51.186;0.276;2023-06-22T02:39:06;101456.03;;;22.84;53.57
64739;BME280;51175;51.186;0.276;2023-06-22T02:39:36;101457.91;;;22.84;53.60
64739;BME280;51175;51.186;0.276;2023-06-22T02:40:08;101459.53;;;22.85;53.43
64739;BME280;51175;51.186;0.276;2023-06-22T02:40:41;101466.00;;;22.84;53.81
64739;BME280;51175;51.186;0.276;2023-06-22T02:41:12;101460.63;;;22.84;53.38
64739;BME280;51175;51.186;0.276;2023-06-22T02:41:43;101459.03;;;22.82;53.51
64739;BME280;51175;51.186;0.276;2023-06-22T02:42:13;101464.44;;;22.82;53.34
64739;BME280;51175;51.186;0.276;2023-06-22T02:42:44;101459.03;;;22.82;53.58
64739;BME280;51175;51.186;0.276;2023-06-22T02:43:14;101469.81;;;22.82;53.54
64739;BME280;51175;51.186;0.276;2023-06-22T02:43:47;101469.00;;;22.82;53.58
64739;BME280;51175;51.186;0.276;2023-06-22T02:44:18;101460.16;;;22.81;53.39
64739;BME280;51175;51.186;0.276;2023-06-22T02:44:49;101459.38;;;22.81;53.62
64739;BME280;51175;51.186;0.276;2023-06-22T02:45:19;101459.38;;;22.81;53.29
64739;BME280;51175;51.186;0.276;2023-06-22T02:45:50;101462.38;;;22.79;53.33
64739;BME280;51175;51.186;0.276;2023-06-22T02:46:20;101459.69;;;22.79;53.48
64739;BME280;51175;51.186;0.276;2023-06-22T02:46:51;101461.25;;;22.80;53.67
64739;BME280;51175;51.186;0.276;2023-06-22T02:47:21;101457.00;;;22.79;53.56
64739;BME280;51175;51.186;0.276;2023-06-22T02:47:52;101457.00;;;22.79;53.49
64739;BME280;51175;51.186;0.276;2023-06-22T02:48:22;101458.09;;;22.78;53.62
64739;BME280;51175;51.186;0.276;2023-06-22T02:48:53;101460.00;;;22.78;53.50
64739;BME280;51175;51.186;0.276;2023-06-22T02:49:23;101461.91;;;22.77;53.40
64739;BME280;51175;51.186;0.276;2023-06-22T02:49:54;101454.63;;;22.78;53.47
64739;BME280;51175;51.186;0.276;2023-06-22T02:50:24;101462.69;;;22.78;53.46
64739;BME280;51175;51.186;0.276;2023-06-22T02:50:55;101461.91;;;22.77;53.53
64739;BME280;51175;51.186;0.276;2023-06-22T02:51:25;101465.72;;;22.76;53.60
64739;BME280;51175;51.186;0.276;2023-06-22T02:51:57;101461.91;;;22.77;53.53
64739;BME280;51175;51.186;0.276;2023-06-22T02:52:27;101460.31;;;22.76;53.74
64739;BME280;51175;51.186;0.276;2023-06-22T02:52:57;101456.06;;;22.75;53.63
64739;BME280;51175;51.186;0.276;2023-06-22T02:53:28;101466.81;;;22.75;53.37
64739;BME280;51175;51.186;0.276;2023-06-22T02:53:58;101464.13;;;22.75;53.57
64739;BME280;51175;51.186;0.276;2023-06-22T02:54:29;101462.22;;;22.76;53.55
64739;BME280;51175;51.186;0.276;2023-06-22T02:54:59;101463.34;;;22.75;53.30